»·PEaware :: N1939W KTOA-KVNY

N1939W :: KTOA-KVNY

FLIGHT INFORMATION

Flight Status: Arrived
Operator: Privately registered:
United States
More flights under this callsign
Pilot: Ralph F. (3863)
Aircraft: BEECH AIRCRAFT BARON
(BE58)
More flights by this aircraft type
Origin: KTOA Zamperini
United States
Destination: KVNY Van Nuys
United States
More flights between these airports :: More routes between these airports
Route: LAX170 LIMBO V64 SMO125 SMO SMO317 CANOG
File this flight plan on PilotEdge
Remarks: +CW / SCTP2 SKYHIGH 1
Altitude:
(Current/Filed)
4,000ft
Speed:
(Current/Filed)
170kts
Departed: 13-Dec-19 05:50 PM
Arrived: 13-Dec-19 06:44 PM
Distance/Time
Traveled:
25nm/0:53
Distance/Time
To Go:
Arrived

Flight Plot

Page will automatically refresh every two minutes.

Flight plan parsing failed; only flown route is shown


Map Options




Map Legend


Flown Route
Filed Route
Departure Airport
Arrival Airport
Navaid (VOR, NDB)
Fix

Horizontal Profiles

Position Reports

Time Latitude Longitude Heading Altitude Ground
Speed
13-Dec-19 17:29 33.801601 -118.341420 218 106ft 0kts
13-Dec-19 17:30 33.801601 -118.341420 218 106ft 0kts
13-Dec-19 17:31 33.801601 -118.341420 218 106ft 0kts
13-Dec-19 17:32 33.801601 -118.341420 218 106ft 0kts
13-Dec-19 17:33 33.801601 -118.341420 218 106ft 0kts
13-Dec-19 17:34 33.801601 -118.341420 218 106ft 0kts
13-Dec-19 17:35 33.801601 -118.341420 218 106ft 0kts
13-Dec-19 17:36 33.801601 -118.341420 218 106ft 0kts
13-Dec-19 17:37 33.801601 -118.341420 218 106ft 0kts
13-Dec-19 17:38 33.801601 -118.341420 218 106ft 0kts
13-Dec-19 17:39 33.801601 -118.341420 218 106ft 0kts
13-Dec-19 17:40 33.801601 -118.341420 218 106ft 0kts
13-Dec-19 17:41 33.801601 -118.341420 218 106ft 0kts
13-Dec-19 17:42 33.801601 -118.341420 218 106ft 0kts
13-Dec-19 17:43 33.801062 -118.340837 129 106ft 9kts
13-Dec-19 17:44 33.800518 -118.338251 128 106ft 12kts
13-Dec-19 17:45 33.798064 -118.334437 90 106ft 9kts
13-Dec-19 17:46 33.799117 -118.333286 37 106ft 0kts
13-Dec-19 17:47 33.799117 -118.333286 37 106ft 0kts
13-Dec-19 17:48 33.799419 -118.333017 29 106ft 7kts
13-Dec-19 17:49 33.801021 -118.335106 308 106ft 67kts
13-Dec-19 17:50 33.820075 -118.365073 309 715ft 132kts
13-Dec-19 17:51 33.845057 -118.401854 309 1538ft 148kts
13-Dec-19 17:52 33.847559 -118.440926 196 2328ft 147kts
13-Dec-19 17:53 33.806982 -118.445694 184 3131ft 146kts
13-Dec-19 17:54 33.767396 -118.444513 136 3922ft 148kts
13-Dec-19 17:55 33.763117 -118.392271 86 4010ft 168kts
13-Dec-19 17:56 33.766559 -118.335541 86 4009ft 171kts
13-Dec-19 17:57 33.769484 -118.278228 86 4009ft 172kts
13-Dec-19 17:58 33.794241 -118.244300 341 4015ft 170kts
13-Dec-19 17:59 33.833323 -118.278932 320 4012ft 184kts
13-Dec-19 18:01 33.872986 -118.318682 320 4007ft 182kts
13-Dec-19 18:02 33.911541 -118.357398 320 4008ft 180kts
13-Dec-19 18:03 33.949916 -118.395967 320 4009ft 179kts
13-Dec-19 18:04 33.988298 -118.434590 320 4009ft 179kts
13-Dec-19 18:05 34.029162 -118.468832 331 4009ft 179kts
13-Dec-19 18:06 34.073237 -118.497217 332 4009ft 179kts
13-Dec-19 18:07 34.116746 -118.525244 332 4216ft 170kts
13-Dec-19 18:08 34.157509 -118.551528 332 4707ft 163kts
13-Dec-19 18:09 34.197939 -118.577553 332 5011ft 171kts
13-Dec-19 18:10 34.241108 -118.605333 332 5009ft 179kts
13-Dec-19 18:11 34.285221 -118.633725 332 5009ft 180kts
13-Dec-19 18:12 34.329037 -118.661707 337 5005ft 180kts
13-Dec-19 18:13 34.378002 -118.653831 10 5009ft 180kts
13-Dec-19 18:14 34.426262 -118.642413 10 5006ft 170kts
13-Dec-19 18:15 34.472103 -118.631588 10 5008ft 166kts
13-Dec-19 18:16 34.499140 -118.596180 81 5009ft 163kts
13-Dec-19 18:17 34.498797 -118.545467 132 5005ft 148kts
13-Dec-19 18:18 34.466559 -118.515609 169 5008ft 145kts
13-Dec-19 18:19 34.426363 -118.510874 175 5011ft 148kts
13-Dec-19 18:19 34.391118 -118.507535 175 5010ft 155kts
13-Dec-19 18:21 34.341207 -118.502866 175 4041ft 148kts
13-Dec-19 18:22 34.300631 -118.498955 175 3027ft 145kts
13-Dec-19 18:22 34.267208 -118.495814 175 2179ft 144kts
13-Dec-19 18:23 34.227611 -118.492058 175 1234ft 138kts
13-Dec-19 18:25 34.189750 -118.486610 151 1288ft 99kts
13-Dec-19 18:25 34.167003 -118.476583 164 2182ft 136kts
13-Dec-19 18:26 34.124631 -118.464331 166 3228ft 169kts
13-Dec-19 18:27 34.077284 -118.455340 179 4233ft 175kts
13-Dec-19 18:28 34.026155 -118.457887 202 4588ft 198kts
13-Dec-19 18:29 34.021603 -118.519902 281 4609ft 203kts
13-Dec-19 18:30 34.033316 -118.585681 281 4832ft 189kts
13-Dec-19 18:31 34.044223 -118.646885 282 5010ft 189kts
13-Dec-19 18:32 34.069964 -118.694674 350 5011ft 185kts
13-Dec-19 18:33 34.118167 -118.703906 351 4735ft 179kts
13-Dec-19 18:34 34.167203 -118.712986 351 4019ft 170kts
13-Dec-19 18:35 34.195488 -118.679407 60 4005ft 141kts
13-Dec-19 18:36 34.200914 -118.633287 90 3669ft 153kts
13-Dec-19 18:37 34.200298 -118.579369 90 2774ft 152kts
13-Dec-19 18:38 34.202615 -118.533316 49 1838ft 130kts
13-Dec-19 18:39 34.236527 -118.530427 357 1514ft 134kts
13-Dec-19 18:40 34.270679 -118.525633 61 1500ft 112kts
13-Dec-19 18:41 34.255184 -118.496444 158 1513ft 129kts
13-Dec-19 18:42 34.224363 -118.490325 176 994ft 95kts
13-Dec-19 18:43 34.210305 -118.488696 89 805ft 0kts
13-Dec-19 18:44 34.208340 -118.488186 176 805ft 20kts
13-Dec-19 18:45 34.203151 -118.488553 180 805ft 16kts
13-Dec-19 18:46 34.200252 -118.487670 179 805ft 0kts
13-Dec-19 18:47 34.200251 -118.487670 179 805ft 0kts

Navigation Log

Ident Type
Flight plan parsing failed, navigation log unavailable